sensor_id;sensor_type;location;lat;lon;timestamp;P1;durP1;ratioP1;P2;durP2;ratioP2
59147;SDS011;44930;52.878;6.168;2023-07-20T00:01:07;2.75;;;1.90;;
59147;SDS011;44930;52.878;6.168;2023-07-20T00:03:33;3.58;;;2.30;;
59147;SDS011;44930;52.878;6.168;2023-07-20T00:05:58;3.25;;;2.00;;
59147;SDS011;44930;52.878;6.168;2023-07-20T00:08:24;2.88;;;2.10;;
59147;SDS011;44930;52.878;6.168;2023-07-20T00:10:49;3.17;;;2.40;;
59147;SDS011;44930;52.878;6.168;2023-07-20T00:13:15;3.13;;;2.25;;
59147;SDS011;44930;52.878;6.168;2023-07-20T00:15:43;2.80;;;2.28;;
59147;SDS011;44930;52.878;6.168;2023-07-20T00:18:09;2.33;;;2.00;;
59147;SDS011;44930;52.878;6.168;2023-07-20T00:20:34;2.55;;;2.35;;
59147;SDS011;44930;52.878;6.168;2023-07-20T00:23:00;3.45;;;2.30;;
59147;SDS011;44930;52.878;6.168;2023-07-20T00:25:26;2.60;;;2.17;;
59147;SDS011;44930;52.878;6.168;2023-07-20T00:27:51;3.05;;;2.60;;
59147;SDS011;44930;52.878;6.168;2023-07-20T00:30:17;2.45;;;2.17;;
59147;SDS011;44930;52.878;6.168;2023-07-20T00:32:43;3.35;;;2.50;;
59147;SDS011;44930;52.878;6.168;2023-07-20T00:35:09;4.75;;;2.47;;
59147;SDS011;44930;52.878;6.168;2023-07-20T00:37:36;3.03;;;2.72;;
59147;SDS011;44930;52.878;6.168;2023-07-20T00:40:02;3.85;;;2.40;;
59147;SDS011;44930;52.878;6.168;2023-07-20T00:42:32;5.07;;;2.83;;
59147;SDS011;44930;52.878;6.168;2023-07-20T00:44:58;5.82;;;2.88;;
59147;SDS011;44930;52.878;6.168;2023-07-20T00:47:23;4.38;;;2.67;;
59147;SDS011;44930;52.878;6.168;2023-07-20T00:49:49;3.70;;;3.00;;
59147;SDS011;44930;52.878;6.168;2023-07-20T00:52:16;4.55;;;3.58;;
59147;SDS011;44930;52.878;6.168;2023-07-20T00:54:45;5.63;;;3.30;;
59147;SDS011;44930;52.878;6.168;2023-07-20T00:57:12;3.85;;;3.30;;
59147;SDS011;44930;52.878;6.168;2023-07-20T00:59:42;4.38;;;3.30;;
59147;SDS011;44930;52.878;6.168;2023-07-20T01:02:08;4.70;;;3.47;;
59147;SDS011;44930;52.878;6.168;2023-07-20T01:04:34;4.40;;;3.20;;
59147;SDS011;44930;52.878;6.168;2023-07-20T01:07:11;4.50;;;3.65;;
59147;SDS011;44930;52.878;6.168;2023-07-20T01:09:48;4.70;;;3.60;;
59147;SDS011;44930;52.878;6.168;2023-07-20T01:12:35;4.18;;;3.78;;
59147;SDS011;44930;52.878;6.168;2023-07-20T01:15:08;4.95;;;4.38;;
59147;SDS011;44930;52.878;6.168;2023-07-20T01:17:34;4.53;;;3.63;;
59147;SDS011;44930;52.878;6.168;2023-07-20T01:20:00;4.25;;;3.78;;
59147;SDS011;44930;52.878;6.168;2023-07-20T01:33:32;3.08;;;2.65;;
59147;SDS011;44930;52.878;6.168;2023-07-20T01:35:59;2.50;;;2.17;;
59147;SDS011;44930;52.878;6.168;2023-07-20T01:38:26;4.75;;;2.65;;
59147;SDS011;44930;52.878;6.168;2023-07-20T01:40:52;2.30;;;2.05;;
59147;SDS011;44930;52.878;6.168;2023-07-20T01:43:18;2.45;;;1.83;;
59147;SDS011;44930;52.878;6.168;2023-07-20T01:45:44;3.55;;;2.30;;
59147;SDS011;44930;52.878;6.168;2023-07-20T01:48:09;3.53;;;2.90;;
59147;SDS011;44930;52.878;6.168;2023-07-20T01:50:35;4.10;;;3.13;;
59147;SDS011;44930;52.878;6.168;2023-07-20T01:53:01;6.07;;;4.32;;
59147;SDS011;44930;52.878;6.168;2023-07-20T01:55:27;3.70;;;3.30;;
59147;SDS011;44930;52.878;6.168;2023-07-20T01:57:54;5.18;;;3.53;;
59147;SDS011;44930;52.878;6.168;2023-07-20T02:00:20;4.20;;;3.13;;
59147;SDS011;44930;52.878;6.168;2023-07-20T02:02:49;4.93;;;3.95;;
59147;SDS011;44930;52.878;6.168;2023-07-20T02:05:15;5.20;;;3.97;;
59147;SDS011;44930;52.878;6.168;2023-07-20T02:07:41;5.70;;;4.50;;
59147;SDS011;44930;52.878;6.168;2023-07-20T02:10:07;4.30;;;3.90;;
59147;SDS011;44930;52.878;6.168;2023-07-20T02:12:33;5.68;;;4.15;;
59147;SDS011;44930;52.878;6.168;2023-07-20T02:14:58;4.32;;;3.92;;
59147;SDS011;44930;52.878;6.168;2023-07-20T02:17:24;4.72;;;3.60;;
59147;SDS011;44930;52.878;6.168;2023-07-20T02:19:52;4.10;;;3.60;;
59147;SDS011;44930;52.878;6.168;2023-07-20T02:22:19;4.28;;;3.72;;
59147;SDS011;44930;52.878;6.168;2023-07-20T02:24:45;5.45;;;3.65;;
59147;SDS011;44930;52.878;6.168;2023-07-20T02:27:11;3.83;;;2.95;;
59147;SDS011;44930;52.878;6.168;2023-07-20T02:29:37;2.85;;;2.55;;
59147;SDS011;44930;52.878;6.168;2023-07-20T02:32:03;3.95;;;2.55;;
59147;SDS011;44930;52.878;6.168;2023-07-20T02:34:29;3.35;;;3.00;;
59147;SDS011;44930;52.878;6.168;2023-07-20T02:36:54;5.85;;;2.95;;
59147;SDS011;44930;52.878;6.168;2023-07-20T02:39:24;3.00;;;2.53;;
59147;SDS011;44930;52.878;6.168;2023-07-20T02:41:49;3.35;;;2.72;;
59147;SDS011;44930;52.878;6.168;2023-07-20T02:44:15;3.45;;;2.78;;
59147;SDS011;44930;52.878;6.168;2023-07-20T02:46:41;2.17;;;1.30;;
59147;SDS011;44930;52.878;6.168;2023-07-20T02:49:06;1.08;;;0.90;;
59147;SDS011;44930;52.878;6.168;2023-07-20T02:51:32;1.70;;;1.20;;
59147;SDS011;44930;52.878;6.168;2023-07-20T02:53:58;2.67;;;1.85;;
59147;SDS011;44930;52.878;6.168;2023-07-20T02:56:24;2.97;;;1.92;;
59147;SDS011;44930;52.878;6.168;2023-07-20T02:58:49;2.13;;;1.80;;
59147;SDS011;44930;52.878;6.168;2023-07-20T03:01:16;3.35;;;2.35;;
59147;SDS011;44930;52.878;6.168;2023-07-20T03:03:42;2.30;;;1.88;;
59147;SDS011;44930;52.878;6.168;2023-07-20T03:06:10;4.68;;;1.95;;
59147;SDS011;44930;52.878;6.168;2023-07-20T03:08:36;2.55;;;2.13;;
59147;SDS011;44930;52.878;6.168;2023-07-20T03:11:02;2.40;;;2.03;;
59147;SDS011;44930;52.878;6.168;2023-07-20T03:13:27;2.45;;;2.00;;
59147;SDS011;44930;52.878;6.168;2023-07-20T03:15:53;3.17;;;2.00;;
59147;SDS011;44930;52.878;6.168;2023-07-20T03:18:19;2.95;;;2.00;;
59147;SDS011;44930;52.878;6.168;2023-07-20T03:20:44;2.97;;;2.50;;
59147;SDS011;44930;52.878;6.168;2023-07-20T03:23:11;2.80;;;2.30;;
59147;SDS011;44930;52.878;6.168;2023-07-20T03:25:37;3.20;;;2.75;;
59147;SDS011;44930;52.878;6.168;2023-07-20T03:28:03;4.13;;;2.80;;
59147;SDS011;44930;52.878;6.168;2023-07-20T03:30:29;4.25;;;3.60;;
59147;SDS011;44930;52.878;6.168;2023-07-20T03:32:54;2.72;;;2.05;;
59147;SDS011;44930;52.878;6.168;2023-07-20T03:35:20;2.83;;;1.90;;
59147;SDS011;44930;52.878;6.168;2023-07-20T03:37:45;4.88;;;2.50;;
59147;SDS011;44930;52.878;6.168;2023-07-20T03:40:11;4.40;;;2.80;;
59147;SDS011;44930;52.878;6.168;2023-07-20T03:42:37;2.22;;;1.65;;
59147;SDS011;44930;52.878;6.168;2023-07-20T03:45:03;1.63;;;1.13;;
59147;SDS011;44930;52.878;6.168;2023-07-20T03:47:31;2.30;;;1.00;;
59147;SDS011;44930;52.878;6.168;2023-07-20T03:49:56;2.80;;;1.88;;
59147;SDS011;44930;52.878;6.168;2023-07-20T03:52:22;2.58;;;1.60;;
59147;SDS011;44930;52.878;6.168;2023-07-20T03:54:48;2.47;;;2.13;;
59147;SDS011;44930;52.878;6.168;2023-07-20T03:57:16;3.58;;;2.08;;
59147;SDS011;44930;52.878;6.168;2023-07-20T03:59:44;2.00;;;1.75;;
59147;SDS011;44930;52.878;6.168;2023-07-20T04:02:10;2.00;;;1.30;;
59147;SDS011;44930;52.878;6.168;2023-07-20T04:04:36;1.80;;;1.33;;
59147;SDS011;44930;52.878;6.168;2023-07-20T04:07:01;2.20;;;1.60;;
59147;SDS011;44930;52.878;6.168;2023-07-20T04:09:27;2.63;;;1.52;;
59147;SDS011;44930;52.878;6.168;2023-07-20T04:11:53;1.85;;;1.60;;
59147;SDS011;44930;52.878;6.168;2023-07-20T04:14:18;2.10;;;1.77;;
59147;SDS011;44930;52.878;6.168;2023-07-20T04:16:45;2.85;;;2.03;;
59147;SDS011;44930;52.878;6.168;2023-07-20T04:19:12;2.67;;;1.80;;
59147;SDS011;44930;52.878;6.168;2023-07-20T04:21:40;3.42;;;2.33;;
59147;SDS011;44930;52.878;6.168;2023-07-20T04:24:06;1.58;;;1.35;;
59147;SDS011;44930;52.878;6.168;2023-07-20T04:26:32;2.42;;;2.08;;
59147;SDS011;44930;52.878;6.168;2023-07-20T04:28:57;8.00;;;2.47;;
59147;SDS011;44930;52.878;6.168;2023-07-20T04:31:24;2.70;;;2.10;;
59147;SDS011;44930;52.878;6.168;2023-07-20T04:33:50;3.13;;;2.30;;
59147;SDS011;44930;52.878;6.168;2023-07-20T04:36:15;2.63;;;2.13;;
59147;SDS011;44930;52.878;6.168;2023-07-20T04:38:44;4.68;;;2.40;;
59147;SDS011;44930;52.878;6.168;2023-07-20T04:41:10;3.85;;;2.22;;
59147;SDS011;44930;52.878;6.168;2023-07-20T04:43:43;2.90;;;2.15;;
59147;SDS011;44930;52.878;6.168;2023-07-20T04:46:12;2.90;;;2.42;;
59147;SDS011;44930;52.878;6.168;2023-07-20T04:48:37;4.35;;;2.65;;
59147;SDS011;44930;52.878;6.168;2023-07-20T04:51:03;3.75;;;2.53;;
59147;SDS011;44930;52.878;6.168;2023-07-20T04:53:29;3.42;;;3.10;;
59147;SDS011;44930;52.878;6.168;2023-07-20T04:55:56;3.75;;;3.25;;
59147;SDS011;44930;52.878;6.168;2023-07-20T04:58:21;6.65;;;3.40;;
59147;SDS011;44930;52.878;6.168;2023-07-20T05:00:50;3.63;;;3.17;;
59147;SDS011;44930;52.878;6.168;2023-07-20T05:03:17;5.75;;;3.35;;
59147;SDS011;44930;52.878;6.168;2023-07-20T05:05:43;5.20;;;3.55;;
59147;SDS011;44930;52.878;6.168;2023-07-20T05:08:08;6.05;;;3.35;;
59147;SDS011;44930;52.878;6.168;2023-07-20T05:10:34;4.03;;;3.63;;
59147;SDS011;44930;52.878;6.168;2023-07-20T05:13:00;4.57;;;3.75;;
59147;SDS011;44930;52.878;6.168;2023-07-20T05:15:26;5.22;;;4.13;;
59147;SDS011;44930;52.878;6.168;2023-07-20T05:17:52;5.90;;;4.07;;
59147;SDS011;44930;52.878;6.168;2023-07-20T05:20:17;6.93;;;4.57;;
59147;SDS011;44930;52.878;6.168;2023-07-20T05:22:43;4.60;;;3.92;;
59147;SDS011;44930;52.878;6.168;2023-07-20T05:25:09;4.95;;;3.95;;
59147;SDS011;44930;52.878;6.168;2023-07-20T05:27:36;5.60;;;4.55;;
59147;SDS011;44930;52.878;6.168;2023-07-20T05:30:03;6.85;;;4.38;;
59147;SDS011;44930;52.878;6.168;2023-07-20T05:32:32;6.82;;;3.85;;
59147;SDS011;44930;52.878;6.168;2023-07-20T05:34:58;4.90;;;3.90;;
59147;SDS011;44930;52.878;6.168;2023-07-20T05:37:23;5.00;;;4.00;;
59147;SDS011;44930;52.878;6.168;2023-07-20T05:39:49;5.13;;;3.40;;
59147;SDS011;44930;52.878;6.168;2023-07-20T05:42:15;4.60;;;3.75;;
59147;SDS011;44930;52.878;6.168;2023-07-20T05:44:41;6.45;;;3.95;;
59147;SDS011;44930;52.878;6.168;2023-07-20T05:47:06;6.70;;;4.95;;
59147;SDS011;44930;52.878;6.168;2023-07-20T05:49:32;6.55;;;4.40;;
59147;SDS011;44930;52.878;6.168;2023-07-20T05:51:59;7.22;;;4.68;;
59147;SDS011;44930;52.878;6.168;2023-07-20T05:54:26;6.50;;;4.10;;
59147;SDS011;44930;52.878;6.168;2023-07-20T05:56:52;7.50;;;4.63;;
59147;SDS011;44930;52.878;6.168;2023-07-20T05:59:18;7.18;;;4.00;;
59147;SDS011;44930;52.878;6.168;2023-07-20T06:01:44;5.63;;;3.78;;
59147;SDS011;44930;52.878;6.168;2023-07-20T06:04:11;6.68;;;3.40;;
59147;SDS011;44930;52.878;6.168;2023-07-20T06:06:36;6.15;;;3.75;;
59147;SDS011;44930;52.878;6.168;2023-07-20T06:09:02;8.05;;;3.58;;
59147;SDS011;44930;52.878;6.168;2023-07-20T06:11:29;3.65;;;3.20;;
59147;SDS011;44930;52.878;6.168;2023-07-20T06:13:55;5.03;;;3.50;;
59147;SDS011;44930;52.878;6.168;2023-07-20T06:16:21;3.45;;;3.15;;
59147;SDS011;44930;52.878;6.168;2023-07-20T06:18:47;6.45;;;3.13;;
59147;SDS011;44930;52.878;6.168;2023-07-20T06:21:13;5.60;;;3.35;;
59147;SDS011;44930;52.878;6.168;2023-07-20T06:23:38;5.22;;;3.40;;
59147;SDS011;44930;52.878;6.168;2023-07-20T06:26:05;4.75;;;2.67;;
59147;SDS011;44930;52.878;6.168;2023-07-20T06:28:32;11.18;;;2.63;;
59147;SDS011;44930;52.878;6.168;2023-07-20T06:31:01;3.17;;;2.15;;
59147;SDS011;44930;52.878;6.168;2023-07-20T06:33:28;3.90;;;2.35;;
59147;SDS011;44930;52.878;6.168;2023-07-20T06:35:53;3.10;;;1.95;;
59147;SDS011;44930;52.878;6.168;2023-07-20T06:38:19;5.13;;;2.10;;
59147;SDS011;44930;52.878;6.168;2023-07-20T06:40:46;4.32;;;2.25;;
59147;SDS011;44930;52.878;6.168;2023-07-20T06:43:12;4.53;;;2.30;;
59147;SDS011;44930;52.878;6.168;2023-07-20T06:45:37;4.90;;;2.42;;
59147;SDS011;44930;52.878;6.168;2023-07-20T06:48:03;5.43;;;2.50;;
59147;SDS011;44930;52.878;6.168;2023-07-20T06:50:29;4.03;;;2.25;;
59147;SDS011;44930;52.878;6.168;2023-07-20T06:52:54;3.45;;;2.10;;
59147;SDS011;44930;52.878;6.168;2023-07-20T06:55:20;6.03;;;1.88;;
59147;SDS011;44930;52.878;6.168;2023-07-20T06:57:46;8.48;;;1.85;;
59147;SDS011;44930;52.878;6.168;2023-07-20T07:00:12;3.97;;;1.83;;
59147;SDS011;44930;52.878;6.168;2023-07-20T07:02:38;2.90;;;1.70;;
59147;SDS011;44930;52.878;6.168;2023-07-20T07:05:03;2.47;;;1.30;;
59147;SDS011;44930;52.878;6.168;2023-07-20T07:07:29;3.53;;;1.38;;
59147;SDS011;44930;52.878;6.168;2023-07-20T07:09:55;3.42;;;1.20;;
59147;SDS011;44930;52.878;6.168;2023-07-20T07:12:20;3.67;;;1.30;;
59147;SDS011;44930;52.878;6.168;2023-07-20T07:14:46;2.40;;;1.00;;
59147;SDS011;44930;52.878;6.168;2023-07-20T07:17:11;4.40;;;1.10;;
59147;SDS011;44930;52.878;6.168;2023-07-20T07:19:37;3.75;;;1.40;;
59147;SDS011;44930;52.878;6.168;2023-07-20T07:22:03;3.47;;;1.08;;
59147;SDS011;44930;52.878;6.168;2023-07-20T07:24:29;2.92;;;1.02;;
59147;SDS011;44930;52.878;6.168;2023-07-20T07:26:58;3.85;;;0.85;;
59147;SDS011;44930;52.878;6.168;2023-07-20T07:29:27;2.30;;;0.82;;
59147;SDS011;44930;52.878;6.168;2023-07-20T07:31:55;2.67;;;1.10;;
59147;SDS011;44930;52.878;6.168;2023-07-20T07:34:21;6.97;;;1.13;;
59147;SDS011;44930;52.878;6.168;2023-07-20T07:36:46;3.67;;;1.30;;
59147;SDS011;44930;52.878;6.168;2023-07-20T07:39:12;3.35;;;0.93;;
59147;SDS011;44930;52.878;6.168;2023-07-20T07:41:38;1.52;;;0.93;;
59147;SDS011;44930;52.878;6.168;2023-07-20T07:44:04;1.70;;;1.00;;
59147;SDS011;44930;52.878;6.168;2023-07-20T07:46:29;2.10;;;0.95;;
59147;SDS011;44930;52.878;6.168;2023-07-20T07:48:55;4.07;;;1.30;;
59147;SDS011;44930;52.878;6.168;2023-07-20T07:51:21;3.97;;;1.15;;
59147;SDS011;44930;52.878;6.168;2023-07-20T07:53:46;3.08;;;1.08;;
59147;SDS011;44930;52.878;6.168;2023-07-20T07:56:14;3.15;;;1.20;;
59147;SDS011;44930;52.878;6.168;2023-07-20T07:58:39;5.43;;;1.30;;
59147;SDS011;44930;52.878;6.168;2023-07-20T08:01:05;3.15;;;1.05;;
59147;SDS011;44930;52.878;6.168;2023-07-20T08:03:31;3.28;;;0.80;;
59147;SDS011;44930;52.878;6.168;2023-07-20T08:05:57;4.05;;;1.30;;
59147;SDS011;44930;52.878;6.168;2023-07-20T08:08:24;6.10;;;1.20;;
59147;SDS011;44930;52.878;6.168;2023-07-20T08:10:52;3.90;;;1.08;;
59147;SDS011;44930;52.878;6.168;2023-07-20T08:13:19;3.42;;;1.00;;
59147;SDS011;44930;52.878;6.168;2023-07-20T08:15:45;3.38;;;0.90;;
59147;SDS011;44930;52.878;6.168;2023-07-20T08:18:13;3.92;;;1.00;;
59147;SDS011;44930;52.878;6.168;2023-07-20T08:20:42;1.48;;;0.75;;
59147;SDS011;44930;52.878;6.168;2023-07-20T08:23:09;5.18;;;0.65;;
59147;SDS011;44930;52.878;6.168;2023-07-20T08:25:36;2.63;;;0.90;;
59147;SDS011;44930;52.878;6.168;2023-07-20T08:28:04;4.63;;;1.25;;
59147;SDS011;44930;52.878;6.168;2023-07-20T08:30:39;5.03;;;1.00;;
59147;SDS011;44930;52.878;6.168;2023-07-20T08:33:09;5.35;;;0.90;;
59147;SDS011;44930;52.878;6.168;2023-07-20T08:35:35;2.38;;;0.75;;
59147;SDS011;44930;52.878;6.168;2023-07-20T08:38:01;3.67;;;0.82;;
59147;SDS011;44930;52.878;6.168;2023-07-20T08:40:27;2.63;;;0.75;;
59147;SDS011;44930;52.878;6.168;2023-07-20T08:42:53;2.67;;;0.60;;
59147;SDS011;44930;52.878;6.168;2023-07-20T08:45:20;2.45;;;0.75;;
59147;SDS011;44930;52.878;6.168;2023-07-20T08:47:48;2.38;;;0.77;;
59147;SDS011;44930;52.878;6.168;2023-07-20T08:50:15;1.98;;;0.75;;
59147;SDS011;44930;52.878;6.168;2023-07-20T08:52:41;4.78;;;1.00;;
59147;SDS011;44930;52.878;6.168;2023-07-20T08:55:07;1.88;;;0.70;;
59147;SDS011;44930;52.878;6.168;2023-07-20T08:57:33;4.55;;;0.88;;
59147;SDS011;44930;52.878;6.168;2023-07-20T09:00:02;2.63;;;0.80;;
59147;SDS011;44930;52.878;6.168;2023-07-20T09:02:38;2.42;;;0.60;;
59147;SDS011;44930;52.878;6.168;2023-07-20T09:05:08;2.67;;;1.20;;
59147;SDS011;44930;52.878;6.168;2023-07-20T09:07:35;2.33;;;0.80;;
59147;SDS011;44930;52.878;6.168;2023-07-20T09:10:01;1.95;;;0.80;;
59147;SDS011;44930;52.878;6.168;2023-07-20T09:12:31;2.75;;;0.70;;
59147;SDS011;44930;52.878;6.168;2023-07-20T09:15:04;2.67;;;0.63;;
59147;SDS011;44930;52.878;6.168;2023-07-20T09:17:30;1.67;;;1.10;;
59147;SDS011;44930;52.878;6.168;2023-07-20T09:19:56;3.30;;;0.90;;
59147;SDS011;44930;52.878;6.168;2023-07-20T09:22:22;3.92;;;0.90;;
59147;SDS011;44930;52.878;6.168;2023-07-20T09:24:54;5.53;;;1.10;;
59147;SDS011;44930;52.878;6.168;2023-07-20T09:27:20;3.22;;;0.98;;
59147;SDS011;44930;52.878;6.168;2023-07-20T09:29:49;2.08;;;0.70;;
59147;SDS011;44930;52.878;6.168;2023-07-20T09:32:18;2.22;;;0.70;;
59147;SDS011;44930;52.878;6.168;2023-07-20T09:34:49;3.33;;;0.82;;
59147;SDS011;44930;52.878;6.168;2023-07-20T09:37:22;1.05;;;0.50;;
59147;SDS011;44930;52.878;6.168;2023-07-20T09:39:48;2.08;;;0.80;;
59147;SDS011;44930;52.878;6.168;2023-07-20T09:42:17;2.50;;;1.17;;
59147;SDS011;44930;52.878;6.168;2023-07-20T09:44:44;5.78;;;0.90;;
59147;SDS011;44930;52.878;6.168;2023-07-20T09:47:09;2.00;;;0.98;;
59147;SDS011;44930;52.878;6.168;2023-07-20T09:49:41;2.28;;;0.95;;
59147;SDS011;44930;52.878;6.168;2023-07-20T09:52:10;2.58;;;0.82;;
59147;SDS011;44930;52.878;6.168;2023-07-20T09:54:39;2.72;;;1.00;;
59147;SDS011;44930;52.878;6.168;2023-07-20T09:57:08;4.97;;;1.00;;
59147;SDS011;44930;52.878;6.168;2023-07-20T09:59:35;2.90;;;0.88;;
59147;SDS011;44930;52.878;6.168;2023-07-20T10:02:01;3.25;;;0.90;;
59147;SDS011;44930;52.878;6.168;2023-07-20T10:04:36;2.60;;;0.88;;
59147;SDS011;44930;52.878;6.168;2023-07-20T10:07:03;2.67;;;0.90;;
59147;SDS011;44930;52.878;6.168;2023-07-20T10:09:33;1.52;;;0.70;;
59147;SDS011;44930;52.878;6.168;2023-07-20T10:12:02;2.28;;;1.15;;
59147;SDS011;44930;52.878;6.168;2023-07-20T10:14:29;2.63;;;1.20;;
59147;SDS011;44930;52.878;6.168;2023-07-20T10:16:58;4.25;;;1.17;;
59147;SDS011;44930;52.878;6.168;2023-07-20T10:19:34;2.40;;;1.00;;
59147;SDS011;44930;52.878;6.168;2023-07-20T10:22:14;2.20;;;1.00;;
59147;SDS011;44930;52.878;6.168;2023-07-20T10:24:50;1.77;;;0.88;;
59147;SDS011;44930;52.878;6.168;2023-07-20T10:27:19;2.63;;;1.08;;
59147;SDS011;44930;52.878;6.168;2023-07-20T10:29:45;2.17;;;1.00;;
59147;SDS011;44930;52.878;6.168;2023-07-20T10:32:12;1.35;;;0.63;;
59147;SDS011;44930;52.878;6.168;2023-07-20T10:34:39;3.50;;;1.02;;
59147;SDS011;44930;52.878;6.168;2023-07-20T10:37:04;2.50;;;1.00;;
59147;SDS011;44930;52.878;6.168;2023-07-20T10:39:31;3.25;;;1.35;;
59147;SDS011;44930;52.878;6.168;2023-07-20T10:42:06;3.25;;;1.10;;
59147;SDS011;44930;52.878;6.168;2023-07-20T10:46:59;3.30;;;1.10;;
59147;SDS011;44930;52.878;6.168;2023-07-20T10:49:33;3.57;;;1.03;;
59147;SDS011;44930;52.878;6.168;2023-07-20T10:52:00;1.58;;;0.70;;
59147;SDS011;44930;52.878;6.168;2023-07-20T10:57:21;2.90;;;0.70;;
59147;SDS011;44930;52.878;6.168;2023-07-20T10:59:48;3.15;;;0.98;;
59147;SDS011;44930;52.878;6.168;2023-07-20T11:02:17;3.72;;;1.25;;
59147;SDS011;44930;52.878;6.168;2023-07-20T11:04:44;1.77;;;0.88;;
59147;SDS011;44930;52.878;6.168;2023-07-20T11:07:14;3.38;;;1.10;;
59147;SDS011;44930;52.878;6.168;2023-07-20T11:09:42;4.10;;;1.02;;
59147;SDS011;44930;52.878;6.168;2023-07-20T11:14:43;1.38;;;0.75;;
59147;SDS011;44930;52.878;6.168;2023-07-20T11:17:19;2.22;;;0.77;;
59147;SDS011;44930;52.878;6.168;2023-07-20T11:19:55;1.92;;;0.73;;
59147;SDS011;44930;52.878;6.168;2023-07-20T11:22:21;4.07;;;0.80;;
59147;SDS011;44930;52.878;6.168;2023-07-20T11:24:47;2.33;;;0.90;;
59147;SDS011;44930;52.878;6.168;2023-07-20T11:27:14;2.85;;;0.60;;
59147;SDS011;44930;52.878;6.168;2023-07-20T11:29:40;1.45;;;0.80;;
59147;SDS011;44930;52.878;6.168;2023-07-20T11:32:06;2.90;;;0.90;;
59147;SDS011;44930;52.878;6.168;2023-07-20T11:34:32;4.30;;;0.80;;
59147;SDS011;44930;52.878;6.168;2023-07-20T11:36:59;0.90;;;0.68;;
59147;SDS011;44930;52.878;6.168;2023-07-20T11:39:25;2.25;;;0.98;;
59147;SDS011;44930;52.878;6.168;2023-07-20T11:41:52;2.05;;;0.82;;
59147;SDS011;44930;52.878;6.168;2023-07-20T11:44:19;4.85;;;1.00;;
59147;SDS011;44930;52.878;6.168;2023-07-20T11:46:58;3.10;;;1.50;;
59147;SDS011;44930;52.878;6.168;2023-07-20T11:49:29;3.30;;;0.82;;
59147;SDS011;44930;52.878;6.168;2023-07-20T11:51:55;3.70;;;0.93;;
59147;SDS011;44930;52.878;6.168;2023-07-20T11:54:22;1.80;;;1.00;;
59147;SDS011;44930;52.878;6.168;2023-07-20T11:56:53;1.98;;;0.85;;
59147;SDS011;44930;52.878;6.168;2023-07-20T11:59:20;2.47;;;0.90;;
59147;SDS011;44930;52.878;6.168;2023-07-20T12:01:45;2.58;;;0.90;;
59147;SDS011;44930;52.878;6.168;2023-07-20T12:04:11;3.78;;;1.10;;
59147;SDS011;44930;52.878;6.168;2023-07-20T12:06:37;1.10;;;0.80;;
59147;SDS011;44930;52.878;6.168;2023-07-20T12:09:02;2.85;;;0.80;;
59147;SDS011;44930;52.878;6.168;2023-07-20T12:11:34;3.00;;;0.75;;
59147;SDS011;44930;52.878;6.168;2023-07-20T12:14:01;1.02;;;0.70;;
59147;SDS011;44930;52.878;6.168;2023-07-20T12:16:28;3.72;;;0.70;;
59147;SDS011;44930;52.878;6.168;2023-07-20T12:19:01;1.75;;;0.80;;
59147;SDS011;44930;52.878;6.168;2023-07-20T12:21:28;3.90;;;0.82;;
59147;SDS011;44930;52.878;6.168;2023-07-20T12:23:55;5.70;;;1.40;;
59147;SDS011;44930;52.878;6.168;2023-07-20T12:26:29;2.22;;;0.68;;
59147;SDS011;44930;52.878;6.168;2023-07-20T12:28:55;2.78;;;0.70;;
59147;SDS011;44930;52.878;6.168;2023-07-20T12:31:21;1.17;;;0.63;;
59147;SDS011;44930;52.878;6.168;2023-07-20T12:33:48;4.15;;;0.90;;
59147;SDS011;44930;52.878;6.168;2023-07-20T12:36:14;2.95;;;0.93;;
59147;SDS011;44930;52.878;6.168;2023-07-20T12:38:40;2.22;;;0.50;;
59147;SDS011;44930;52.878;6.168;2023-07-20T12:41:06;3.20;;;0.88;;
59147;SDS011;44930;52.878;6.168;2023-07-20T12:43:34;1.13;;;0.52;;
59147;SDS011;44930;52.878;6.168;2023-07-20T12:45:59;5.45;;;1.02;;
59147;SDS011;44930;52.878;6.168;2023-07-20T12:48:25;2.00;;;1.20;;
59147;SDS011;44930;52.878;6.168;2023-07-20T12:50:51;3.55;;;1.50;;
59147;SDS011;44930;52.878;6.168;2023-07-20T12:53:17;3.85;;;0.80;;
59147;SDS011;44930;52.878;6.168;2023-07-20T12:55:42;3.00;;;0.40;;
59147;SDS011;44930;52.878;6.168;2023-07-20T12:58:08;2.78;;;1.02;;
59147;SDS011;44930;52.878;6.168;2023-07-20T13:00:34;3.80;;;0.80;;
59147;SDS011;44930;52.878;6.168;2023-07-20T13:03:00;2.10;;;1.00;;
59147;SDS011;44930;52.878;6.168;2023-07-20T13:05:29;2.80;;;0.70;;
59147;SDS011;44930;52.878;6.168;2023-07-20T13:07:56;1.70;;;0.85;;
59147;SDS011;44930;52.878;6.168;2023-07-20T13:10:23;2.17;;;0.65;;
59147;SDS011;44930;52.878;6.168;2023-07-20T13:12:49;3.42;;;0.60;;
59147;SDS011;44930;52.878;6.168;2023-07-20T13:15:15;1.17;;;0.50;;
59147;SDS011;44930;52.878;6.168;2023-07-20T13:17:41;0.55;;;0.40;;
59147;SDS011;44930;52.878;6.168;2023-07-20T13:20:08;1.40;;;0.80;;
59147;SDS011;44930;52.878;6.168;2023-07-20T13:22:36;2.10;;;0.60;;
59147;SDS011;44930;52.878;6.168;2023-07-20T13:25:02;1.08;;;0.43;;
59147;SDS011;44930;52.878;6.168;2023-07-20T13:27:28;0.50;;;0.35;;
59147;SDS011;44930;52.878;6.168;2023-07-20T13:29:55;2.75;;;0.60;;
59147;SDS011;44930;52.878;6.168;2023-07-20T13:32:21;1.00;;;0.50;;
59147;SDS011;44930;52.878;6.168;2023-07-20T13:34:47;2.45;;;1.05;;
59147;SDS011;44930;52.878;6.168;2023-07-20T13:37:13;0.93;;;0.70;;
59147;SDS011;44930;52.878;6.168;2023-07-20T13:39:39;1.75;;;0.70;;
59147;SDS011;44930;52.878;6.168;2023-07-20T13:42:05;1.27;;;0.60;;
59147;SDS011;44930;52.878;6.168;2023-07-20T13:44:31;1.00;;;0.50;;
59147;SDS011;44930;52.878;6.168;2023-07-20T13:46:57;4.28;;;1.20;;
59147;SDS011;44930;52.878;6.168;2023-07-20T13:49:23;1.13;;;0.60;;
59147;SDS011;44930;52.878;6.168;2023-07-20T13:51:49;2.22;;;0.70;;
59147;SDS011;44930;52.878;6.168;2023-07-20T13:54:15;1.55;;;0.70;;
59147;SDS011;44930;52.878;6.168;2023-07-20T13:56:40;3.20;;;0.90;;
59147;SDS011;44930;52.878;6.168;2023-07-20T13:59:06;2.53;;;0.70;;
59147;SDS011;44930;52.878;6.168;2023-07-20T14:01:31;3.25;;;0.70;;
59147;SDS011;44930;52.878;6.168;2023-07-20T14:04:00;3.28;;;0.85;;
59147;SDS011;44930;52.878;6.168;2023-07-20T14:06:29;2.55;;;0.40;;
59147;SDS011;44930;52.878;6.168;2023-07-20T14:08:55;1.15;;;0.40;;
59147;SDS011;44930;52.878;6.168;2023-07-20T14:11:21;2.00;;;0.65;;
59147;SDS011;44930;52.878;6.168;2023-07-20T14:13:47;2.17;;;0.63;;
59147;SDS011;44930;52.878;6.168;2023-07-20T14:16:13;2.08;;;0.75;;
59147;SDS011;44930;52.878;6.168;2023-07-20T14:18:38;2.83;;;0.95;;
59147;SDS011;44930;52.878;6.168;2023-07-20T14:21:04;2.90;;;0.65;;
59147;SDS011;44930;52.878;6.168;2023-07-20T14:23:31;1.27;;;0.55;;
59147;SDS011;44930;52.878;6.168;2023-07-20T14:25:57;0.60;;;0.40;;
59147;SDS011;44930;52.878;6.168;2023-07-20T14:28:23;2.22;;;0.60;;
59147;SDS011;44930;52.878;6.168;2023-07-20T14:30:49;4.88;;;0.60;;
59147;SDS011;44930;52.878;6.168;2023-07-20T14:33:15;2.47;;;0.70;;
59147;SDS011;44930;52.878;6.168;2023-07-20T14:35:40;2.45;;;1.02;;
59147;SDS011;44930;52.878;6.168;2023-07-20T14:38:06;2.63;;;0.88;;
59147;SDS011;44930;52.878;6.168;2023-07-20T14:40:31;3.45;;;0.52;;
59147;SDS011;44930;52.878;6.168;2023-07-20T14:42:57;3.20;;;0.82;;
59147;SDS011;44930;52.878;6.168;2023-07-20T14:45:25;1.65;;;0.70;;
59147;SDS011;44930;52.878;6.168;2023-07-20T14:47:52;1.55;;;0.65;;
59147;SDS011;44930;52.878;6.168;2023-07-20T14:50:18;2.65;;;0.77;;
59147;SDS011;44930;52.878;6.168;2023-07-20T14:52:45;1.40;;;0.60;;
59147;SDS011;44930;52.878;6.168;2023-07-20T14:55:11;3.92;;;0.60;;
59147;SDS011;44930;52.878;6.168;2023-07-20T14:57:36;1.95;;;1.20;;
59147;SDS011;44930;52.878;6.168;2023-07-20T15:00:03;2.15;;;0.50;;
59147;SDS011;44930;52.878;6.168;2023-07-20T15:02:39;2.40;;;0.70;;
59147;SDS011;44930;52.878;6.168;2023-07-20T15:05:06;1.85;;;0.60;;